createdAt,value
2022-10-08T00:01:57.021Z,6.89
2022-10-08T00:04:24.012Z,6.90
2022-10-08T00:06:50.716Z,6.98
2022-10-08T00:09:17.281Z,6.96
2022-10-08T00:11:43.888Z,6.93
2022-10-08T00:14:10.532Z,6.90
2022-10-08T00:16:39.089Z,6.80
2022-10-08T00:19:11.358Z,6.78
2022-10-08T00:21:38.595Z,6.71
2022-10-08T00:24:06.113Z,6.72
2022-10-08T00:26:33.595Z,6.75
2022-10-08T00:29:02.160Z,6.79
2022-10-08T00:31:30.747Z,6.64
2022-10-08T00:33:58.072Z,6.58
2022-10-08T00:36:26.808Z,6.59
2022-10-08T00:39:06.730Z,6.51
2022-10-08T00:41:35.512Z,6.51
2022-10-08T00:44:02.256Z,6.57
2022-10-08T00:46:41.473Z,6.67
2022-10-08T00:49:13.712Z,6.82
2022-10-08T00:51:45.291Z,6.87
2022-10-08T00:54:12.293Z,7.03
2022-10-08T00:56:39.058Z,7.11
2022-10-08T00:59:06.012Z,7.23
2022-10-08T01:01:32.773Z,7.43
2022-10-08T01:04:04.008Z,7.51
2022-10-08T01:06:32.542Z,7.60
2022-10-08T01:09:09.479Z,7.61
2022-10-08T01:11:42.009Z,7.64
2022-10-08T01:14:24.629Z,7.62
2022-10-08T01:17:09.880Z,7.59
2022-10-08T01:19:42.424Z,7.58
2022-10-08T01:22:27.788Z,7.58
2022-10-08T01:24:56.869Z,7.55
2022-10-08T01:27:34.897Z,7.56
2022-10-08T01:30:02.832Z,7.59
2022-10-08T01:32:30.403Z,7.55
2022-10-08T01:35:01.955Z,7.55
2022-10-08T01:37:30.783Z,7.52
2022-10-08T01:39:58.849Z,7.55
2022-10-08T01:42:25.483Z,7.53
2022-10-08T01:44:54.201Z,7.54
2022-10-08T01:47:25.396Z,7.53
2022-10-08T01:49:54.190Z,7.60
2022-10-08T01:52:23.756Z,7.57
2022-10-08T01:54:50.370Z,7.63
2022-10-08T01:57:16.890Z,7.59
2022-10-08T01:59:54.712Z,7.60
2022-10-08T02:02:22.464Z,7.65
2022-10-08T02:04:49.689Z,7.70
2022-10-08T02:07:18.522Z,7.68
2022-10-08T02:09:46.886Z,7.66
2022-10-08T02:12:13.471Z,7.63
2022-10-08T02:14:54.913Z,7.60
2022-10-08T02:17:45.279Z,7.65
2022-10-08T02:20:20.349Z,7.65
2022-10-08T02:22:52.333Z,7.68
2022-10-08T02:25:44.751Z,7.65
2022-10-08T02:28:21.997Z,7.60
2022-10-08T02:31:05.773Z,7.66
2022-10-08T02:33:44.007Z,7.64
2022-10-08T02:36:10.533Z,7.71
2022-10-08T02:38:39.748Z,7.76
2022-10-08T02:41:07.016Z,7.74
2022-10-08T02:43:34.908Z,7.80
2022-10-08T02:46:15.244Z,7.83
2022-10-08T02:48:41.860Z,7.91
2022-10-08T02:51:11.811Z,7.94
2022-10-08T02:53:39.008Z,7.98
2022-10-08T02:56:20.232Z,8.01
2022-10-08T02:58:46.864Z,7.97
2022-10-08T03:01:37.318Z,7.99
2022-10-08T03:04:06.386Z,7.94
2022-10-08T03:06:33.085Z,7.95
2022-10-08T03:08:59.977Z,7.89
2022-10-08T03:11:27.267Z,7.88
2022-10-08T03:13:53.832Z,7.86
2022-10-08T03:16:21.772Z,7.94
2022-10-08T03:18:48.362Z,7.90
2022-10-08T03:21:14.951Z,7.87
2022-10-08T03:23:41.665Z,7.91
2022-10-08T03:26:08.235Z,7.91
2022-10-08T03:28:34.818Z,7.91
2022-10-08T03:31:06.296Z,7.90
2022-10-08T03:33:33.517Z,7.89
2022-10-08T03:36:00.154Z,7.95
2022-10-08T03:38:26.735Z,7.90
2022-10-08T03:40:54.588Z,7.90
2022-10-08T03:43:21.276Z,7.95
2022-10-08T03:45:51.911Z,7.95
2022-10-08T03:48:18.757Z,7.99
2022-10-08T03:50:56.116Z,7.99
2022-10-08T03:53:23.007Z,7.92
2022-10-08T03:55:49.662Z,7.96
2022-10-08T03:58:16.192Z,7.96
2022-10-08T04:00:42.755Z,7.98
2022-10-08T04:03:09.467Z,8.02
2022-10-08T04:05:36.112Z,8.00
2022-10-08T04:08:02.738Z,8.07
2022-10-08T04:10:29.356Z,8.04
2022-10-08T04:12:55.938Z,7.98
2022-10-08T04:15:22.414Z,8.02
2022-10-08T04:17:48.974Z,8.02
2022-10-08T04:20:15.592Z,8.04
2022-10-08T04:22:42.227Z,7.98
2022-10-08T04:25:08.974Z,8.02
2022-10-08T04:27:35.640Z,8.02
2022-10-08T04:30:02.326Z,8.12
2022-10-08T04:32:28.958Z,8.09
2022-10-08T04:34:55.553Z,8.13
2022-10-08T04:37:22.192Z,8.14
2022-10-08T04:39:48.784Z,8.11
2022-10-08T04:42:15.384Z,8.11
2022-10-08T04:44:42.014Z,8.14
2022-10-08T04:47:08.632Z,8.14
2022-10-08T04:49:35.322Z,8.18
2022-10-08T04:52:01.923Z,8.20
2022-10-08T04:54:28.488Z,8.23
2022-10-08T04:56:55.070Z,8.21
2022-10-08T04:59:21.731Z,8.19
2022-10-08T05:01:48.362Z,8.20
2022-10-08T05:04:15.107Z,8.18
2022-10-08T05:06:41.767Z,8.15
2022-10-08T05:09:08.898Z,8.17
2022-10-08T05:11:35.574Z,8.20
2022-10-08T05:14:02.209Z,8.15
2022-10-08T05:16:28.856Z,8.14
2022-10-08T05:18:55.697Z,8.09
2022-10-08T05:21:24.112Z,8.09
2022-10-08T05:23:57.257Z,8.08
2022-10-08T05:26:46.198Z,8.13
2022-10-08T05:29:12.231Z,8.08
2022-10-08T05:31:38.929Z,8.11
2022-10-08T05:34:05.628Z,8.12
2022-10-08T05:36:32.852Z,8.08
2022-10-08T05:38:59.897Z,8.07
2022-10-08T05:41:28.699Z,8.00
2022-10-08T05:43:56.015Z,8.08
2022-10-08T05:46:27.267Z,8.02
2022-10-08T05:48:54.674Z,8.04
2022-10-08T05:51:21.184Z,8.05
2022-10-08T05:53:48.840Z,8.09
2022-10-08T05:56:17.246Z,8.14
2022-10-08T05:58:43.977Z,8.15
2022-10-08T06:01:13.736Z,8.20
2022-10-08T06:03:40.614Z,8.23
2022-10-08T06:06:08.940Z,8.25
2022-10-08T06:08:35.840Z,8.24
2022-10-08T06:11:02.824Z,8.25
2022-10-08T06:13:29.432Z,8.33
2022-10-08T06:15:57.413Z,8.31
2022-10-08T06:18:24.832Z,8.35
2022-10-08T06:20:51.623Z,8.40
2022-10-08T06:23:18.710Z,8.41
2022-10-08T06:25:45.461Z,8.43
2022-10-08T06:28:12.240Z,8.50
2022-10-08T06:30:42.160Z,8.59
2022-10-08T06:33:09.450Z,8.66
2022-10-08T06:35:36.394Z,8.65
2022-10-08T06:38:03.741Z,8.68
2022-10-08T06:40:36.458Z,8.73
2022-10-08T06:43:03.069Z,8.73
2022-10-08T06:45:29.667Z,8.75
2022-10-08T06:47:56.902Z,8.87
2022-10-08T06:50:23.545Z,9.02
2022-10-08T06:52:50.360Z,9.12
2022-10-08T06:55:16.983Z,9.29
2022-10-08T06:57:43.618Z,9.42
2022-10-08T07:00:11.564Z,9.56
2022-10-08T07:02:38.263Z,9.68
2022-10-08T07:05:05.241Z,9.79
2022-10-08T07:07:31.872Z,9.94
2022-10-08T07:09:58.473Z,9.97
2022-10-08T07:12:25.143Z,10.10
2022-10-08T07:14:51.741Z,10.10
2022-10-08T07:17:18.380Z,10.13
2022-10-08T07:19:45.033Z,10.22
2022-10-08T07:22:11.637Z,10.18
2022-10-08T07:24:38.684Z,10.17
2022-10-08T07:27:05.333Z,10.24
2022-10-08T07:29:31.914Z,10.30
2022-10-08T07:31:58.662Z,10.38
2022-10-08T07:34:25.333Z,10.50
2022-10-08T07:36:51.984Z,10.51
2022-10-08T07:39:19.814Z,10.43
2022-10-08T07:41:46.681Z,10.48
2022-10-08T07:44:13.370Z,10.47
2022-10-08T07:46:47.421Z,10.50
2022-10-08T07:49:14.177Z,10.51
2022-10-08T07:51:40.799Z,10.58
2022-10-08T07:54:07.535Z,10.60
2022-10-08T07:56:34.445Z,10.72
2022-10-08T07:59:02.598Z,10.83
2022-10-08T08:01:29.438Z,10.86
2022-10-08T08:04:03.410Z,10.84
2022-10-08T08:06:30.505Z,10.89
2022-10-08T08:08:57.036Z,10.93
2022-10-08T08:11:24.068Z,10.96
2022-10-08T08:13:50.969Z,10.98
2022-10-08T08:16:22.246Z,10.94
2022-10-08T08:18:50.382Z,10.90
2022-10-08T08:21:21.558Z,10.91
2022-10-08T08:23:49.791Z,10.99
2022-10-08T08:26:19.570Z,11.01
2022-10-08T08:28:50.522Z,11.02
2022-10-08T08:31:20.892Z,11.12
2022-10-08T08:33:48.944Z,11.16
2022-10-08T08:36:15.517Z,11.21
2022-10-08T08:38:42.116Z,11.15
2022-10-08T08:41:14.819Z,11.23
2022-10-08T08:43:43.036Z,11.33
2022-10-08T08:46:10.939Z,11.34
2022-10-08T08:48:37.587Z,11.42
2022-10-08T08:51:04.292Z,11.49
2022-10-08T08:53:30.864Z,11.55
2022-10-08T08:55:58.859Z,11.41
2022-10-08T08:58:33.357Z,11.48
2022-10-08T09:01:06.469Z,11.55
2022-10-08T09:03:38.398Z,11.67
2022-10-08T09:06:07.086Z,11.66
2022-10-08T09:08:40.605Z,11.70
2022-10-08T09:11:10.069Z,11.83
2022-10-08T09:13:39.437Z,11.90
2022-10-08T09:16:06.051Z,12.05
2022-10-08T09:18:32.750Z,12.11
2022-10-08T09:20:59.378Z,12.33
2022-10-08T09:23:26.525Z,12.34
2022-10-08T09:25:57.771Z,12.43
2022-10-08T09:28:50.127Z,12.43
2022-10-08T09:31:30.449Z,12.37
2022-10-08T09:34:17.536Z,12.39
2022-10-08T09:36:44.899Z,12.46
2022-10-08T09:39:35.671Z,12.34
2022-10-08T09:42:08.280Z,12.32
2022-10-08T09:44:47.298Z,12.34
2022-10-08T09:47:15.387Z,12.29
2022-10-08T09:49:42.126Z,12.25
2022-10-08T09:52:23.202Z,12.29
2022-10-08T09:54:56.494Z,12.32
2022-10-08T09:57:23.180Z,12.28
2022-10-08T09:59:53.757Z,12.37
2022-10-08T10:02:36.481Z,12.37
2022-10-08T10:05:05.277Z,12.57
2022-10-08T10:07:42.695Z,12.67
2022-10-08T10:10:14.801Z,12.69
2022-10-08T10:12:41.859Z,12.74
2022-10-08T10:15:16.421Z,12.72
2022-10-08T10:18:02.598Z,12.90
2022-10-08T10:20:32.234Z,12.98
2022-10-08T10:23:03.314Z,13.01
2022-10-08T10:25:37.089Z,13.11
2022-10-08T10:28:32.697Z,13.14
2022-10-08T10:31:07.576Z,13.38
2022-10-08T10:33:36.954Z,13.40
2022-10-08T10:36:09.578Z,13.43
2022-10-08T10:38:42.939Z,13.43
2022-10-08T10:41:20.072Z,13.44
2022-10-08T10:43:50.778Z,13.46
2022-10-08T10:46:52.052Z,13.48
2022-10-08T10:49:23.489Z,13.55
2022-10-08T10:52:08.152Z,13.61
2022-10-08T10:54:57.080Z,13.57
2022-10-08T10:58:02.421Z,13.53
2022-10-08T11:00:37.908Z,13.54
2022-10-08T11:03:13.485Z,13.58
2022-10-08T11:05:40.100Z,13.64
2022-10-08T11:08:09.587Z,13.67
2022-10-08T11:10:48.975Z,13.74
2022-10-08T11:13:30.576Z,13.87
2022-10-08T11:16:38.756Z,13.85
2022-10-08T11:19:06.020Z,13.90
2022-10-08T11:22:04.982Z,13.87
2022-10-08T11:25:11.525Z,13.88
2022-10-08T11:27:44.955Z,13.82
2022-10-08T11:30:17.952Z,13.92
2022-10-08T11:32:46.234Z,14.08
2022-10-08T11:35:32.446Z,14.09
2022-10-08T11:38:01.932Z,14.28
2022-10-08T11:40:41.766Z,14.35
2022-10-08T11:43:35.604Z,14.46
2022-10-08T11:46:23.756Z,14.45
2022-10-08T11:48:50.501Z,14.44
2022-10-08T11:51:20.200Z,14.53
2022-10-08T11:54:05.670Z,14.71
2022-10-08T11:56:32.604Z,14.72
2022-10-08T11:59:01.558Z,14.78
2022-10-08T12:01:28.308Z,14.83
2022-10-08T12:04:03.018Z,14.77
2022-10-08T12:06:29.971Z,14.79
2022-10-08T12:08:59.789Z,14.95
2022-10-08T12:11:45.604Z,14.98
2022-10-08T12:14:11.961Z,14.96
2022-10-08T12:16:47.253Z,14.83
2022-10-08T12:19:32.552Z,14.71
2022-10-08T12:22:25.426Z,14.45
2022-10-08T12:24:56.112Z,14.30
2022-10-08T12:27:22.603Z,14.35
2022-10-08T12:30:08.762Z,14.36
2022-10-08T12:32:41.324Z,14.40
2022-10-08T12:35:22.938Z,14.27
2022-10-08T12:38:26.206Z,14.31
2022-10-08T12:41:14.301Z,14.40
2022-10-08T12:44:06.177Z,14.44
2022-10-08T12:46:40.156Z,14.42
2022-10-08T12:49:20.318Z,14.36
2022-10-08T12:52:15.555Z,14.35
2022-10-08T12:54:48.060Z,14.41
2022-10-08T12:57:19.289Z,14.56
2022-10-08T12:59:45.808Z,14.43
2022-10-08T13:02:33.624Z,14.44
2022-10-08T13:05:00.302Z,14.62
2022-10-08T13:07:28.639Z,14.53
2022-10-08T13:09:56.569Z,14.56
2022-10-08T13:12:23.208Z,14.50
2022-10-08T13:14:59.107Z,14.46
2022-10-08T13:17:30.552Z,14.45
2022-10-08T13:20:24.269Z,14.47
2022-10-08T13:22:50.950Z,14.44
2022-10-08T13:25:39.232Z,14.46
2022-10-08T13:28:11.332Z,14.40
2022-10-08T13:30:38.036Z,14.42
2022-10-08T13:33:25.205Z,14.37
2022-10-08T13:35:54.623Z,14.42
2022-10-08T13:38:24.265Z,14.36
2022-10-08T13:40:52.149Z,14.52
2022-10-08T13:43:19.083Z,14.57
2022-10-08T13:45:45.646Z,14.48
2022-10-08T13:48:12.635Z,14.58
2022-10-08T13:50:46.255Z,14.57
2022-10-08T13:53:12.953Z,14.69
2022-10-08T13:55:41.201Z,14.74
2022-10-08T13:58:07.818Z,14.63
2022-10-08T14:00:36.247Z,14.66
2022-10-08T14:03:03.009Z,14.61
2022-10-08T14:05:30.197Z,14.52
2022-10-08T14:07:58.681Z,14.54
2022-10-08T14:10:26.421Z,14.55
2022-10-08T14:12:53.030Z,14.62
2022-10-08T14:15:19.646Z,14.50
2022-10-08T14:17:46.536Z,14.47
2022-10-08T14:20:13.295Z,14.50
2022-10-08T14:22:39.944Z,14.53
2022-10-08T14:25:08.253Z,14.50
2022-10-08T14:27:34.896Z,14.41
2022-10-08T14:30:01.497Z,14.38
2022-10-08T14:32:28.153Z,14.40
2022-10-08T14:34:54.668Z,14.24
2022-10-08T14:37:22.137Z,14.20
2022-10-08T14:39:48.736Z,14.14
2022-10-08T14:42:15.467Z,14.18
2022-10-08T14:44:42.128Z,14.06
2022-10-08T14:47:08.800Z,14.16
2022-10-08T14:49:35.330Z,14.12
2022-10-08T14:52:01.876Z,14.14
2022-10-08T14:54:29.105Z,14.16
2022-10-08T14:56:56.010Z,14.08
2022-10-08T14:59:22.655Z,14.03
2022-10-08T15:01:50.103Z,14.02
2022-10-08T15:04:16.820Z,13.94
2022-10-08T15:06:43.529Z,13.84
2022-10-08T15:09:11.311Z,13.87
2022-10-08T15:11:37.981Z,13.88
2022-10-08T15:14:04.917Z,13.75
2022-10-08T15:16:31.472Z,13.75
2022-10-08T15:18:58.248Z,13.71
2022-10-08T15:21:24.845Z,13.69
2022-10-08T15:23:52.029Z,13.61
2022-10-08T15:26:18.748Z,13.53
2022-10-08T15:28:45.696Z,13.49
2022-10-08T15:31:17.124Z,13.40
2022-10-08T15:33:45.701Z,13.36
2022-10-08T15:36:23.684Z,13.30
2022-10-08T15:39:32.223Z,13.23
2022-10-08T15:42:02.157Z,13.13
2022-10-08T15:44:30.091Z,13.03
2022-10-08T15:46:59.791Z,13.02
2022-10-08T15:49:30.584Z,12.96
2022-10-08T15:51:57.245Z,12.97
2022-10-08T15:54:23.763Z,12.97
2022-10-08T15:56:50.361Z,12.85
2022-10-08T15:59:17.984Z,12.78
2022-10-08T16:01:44.614Z,12.69
2022-10-08T16:04:12.095Z,12.63
2022-10-08T16:06:38.885Z,12.50
2022-10-08T16:09:05.642Z,12.55
2022-10-08T16:11:33.972Z,12.49
2022-10-08T16:14:02.282Z,12.31
2022-10-08T16:16:29.031Z,12.32
2022-10-08T16:18:57.866Z,12.27
2022-10-08T16:21:24.822Z,12.13
2022-10-08T16:23:51.400Z,12.10
2022-10-08T16:26:18.558Z,12.11
2022-10-08T16:28:45.191Z,12.08
2022-10-08T16:31:12.017Z,12.04
2022-10-08T16:33:38.733Z,11.91
2022-10-08T16:36:06.689Z,11.84
2022-10-08T16:38:33.498Z,11.77
2022-10-08T16:41:17.054Z,11.72
2022-10-08T16:43:44.570Z,11.56
2022-10-08T16:46:14.877Z,11.38
2022-10-08T16:48:41.633Z,11.25
2022-10-08T16:51:08.873Z,11.29
2022-10-08T16:53:35.477Z,11.20
2022-10-08T16:56:03.042Z,11.20
2022-10-08T16:58:29.670Z,11.07
2022-10-08T17:00:56.443Z,11.02
2022-10-08T17:03:23.019Z,11.05
2022-10-08T17:05:49.547Z,10.82
2022-10-08T17:08:16.141Z,10.84
2022-10-08T17:10:42.724Z,10.80
2022-10-08T17:13:11.231Z,10.79
2022-10-08T17:15:37.997Z,10.69
2022-10-08T17:18:04.866Z,10.57
2022-10-08T17:20:31.501Z,10.40
2022-10-08T17:22:58.103Z,10.23
2022-10-08T17:25:24.741Z,10.06
2022-10-08T17:27:51.323Z,10.02
2022-10-08T17:30:17.927Z,9.90
2022-10-08T17:32:45.038Z,9.88
2022-10-08T17:35:11.790Z,9.78
2022-10-08T17:37:38.461Z,9.78
2022-10-08T17:40:05.839Z,9.63
2022-10-08T17:42:32.463Z,9.56
2022-10-08T17:44:59.010Z,9.53
2022-10-08T17:47:29.052Z,9.41
2022-10-08T17:49:55.996Z,9.21
2022-10-08T17:52:22.580Z,9.19
2022-10-08T17:54:49.322Z,9.20
2022-10-08T17:57:15.981Z,9.12
2022-10-08T17:59:42.581Z,8.99
2022-10-08T18:02:09.277Z,8.84
2022-10-08T18:04:36.037Z,8.81
2022-10-08T18:07:03.617Z,8.71
2022-10-08T18:09:30.398Z,8.63
2022-10-08T18:11:56.932Z,8.57
2022-10-08T18:14:23.455Z,8.57
2022-10-08T18:16:50.206Z,8.58
2022-10-08T18:19:17.452Z,8.56
2022-10-08T18:21:44.209Z,8.56
2022-10-08T18:24:10.797Z,8.46
2022-10-08T18:26:40.206Z,8.39
2022-10-08T18:29:08.379Z,8.26
2022-10-08T18:31:35.211Z,8.34
2022-10-08T18:34:05.807Z,8.19
2022-10-08T18:36:33.670Z,8.14
2022-10-08T18:39:04.621Z,8.03
2022-10-08T18:41:35.126Z,7.94
2022-10-08T18:44:01.906Z,7.89
2022-10-08T18:46:28.612Z,7.81
2022-10-08T18:48:55.802Z,7.77
2022-10-08T18:51:24.321Z,7.70
2022-10-08T18:53:51.040Z,7.68
2022-10-08T18:56:25.726Z,7.63
2022-10-08T18:58:52.802Z,7.49
2022-10-08T19:01:23.961Z,7.29
2022-10-08T19:03:53.050Z,7.18
2022-10-08T19:06:20.416Z,7.11
2022-10-08T19:08:47.150Z,7.10
2022-10-08T19:11:15.278Z,6.99
2022-10-08T19:13:41.996Z,7.00
2022-10-08T19:16:08.684Z,6.98
2022-10-08T19:18:36.646Z,7.02
2022-10-08T19:21:10.226Z,7.00
2022-10-08T19:23:37.148Z,7.03
2022-10-08T19:26:04.622Z,7.09
2022-10-08T19:28:32.624Z,7.08
2022-10-08T19:30:59.408Z,7.09
2022-10-08T19:33:26.063Z,7.14
2022-10-08T19:35:52.660Z,7.00
2022-10-08T19:38:19.286Z,6.90
2022-10-08T19:40:45.853Z,6.94
2022-10-08T19:43:12.523Z,6.88
2022-10-08T19:45:39.335Z,6.80
2022-10-08T19:48:05.996Z,6.81
2022-10-08T19:50:32.744Z,6.69
2022-10-08T19:52:59.333Z,6.66
2022-10-08T19:55:26.589Z,6.58
2022-10-08T19:57:53.347Z,6.62
2022-10-08T20:00:20.598Z,6.55
2022-10-08T20:02:47.544Z,6.40
2022-10-08T20:05:14.421Z,6.28
2022-10-08T20:07:41.028Z,6.31
2022-10-08T20:10:08.109Z,6.24
2022-10-08T20:12:36.578Z,6.12
2022-10-08T20:15:03.160Z,6.07
2022-10-08T20:17:29.782Z,6.11
2022-10-08T20:20:14.849Z,6.10
2022-10-08T20:22:42.926Z,5.98
2022-10-08T20:25:09.753Z,6.05
2022-10-08T20:27:36.345Z,5.88
2022-10-08T20:30:02.995Z,5.95
2022-10-08T20:32:30.523Z,5.85
2022-10-08T20:34:57.302Z,5.88
2022-10-08T20:37:23.960Z,5.83
2022-10-08T20:39:50.666Z,5.81
2022-10-08T20:42:17.326Z,5.83
2022-10-08T20:44:43.918Z,5.74
2022-10-08T20:47:10.553Z,5.67
2022-10-08T20:49:37.090Z,5.65
2022-10-08T20:52:03.714Z,5.63
2022-10-08T20:54:30.333Z,5.57
2022-10-08T20:56:57.037Z,5.51
2022-10-08T20:59:23.902Z,5.44
2022-10-08T21:01:50.672Z,5.36
2022-10-08T21:04:18.077Z,5.42
2022-10-08T21:06:46.202Z,5.28
2022-10-08T21:09:13.523Z,5.21
2022-10-08T21:11:40.160Z,5.17
2022-10-08T21:14:07.393Z,5.17
2022-10-08T21:16:35.648Z,5.20
2022-10-08T21:19:03.558Z,5.24
2022-10-08T21:21:31.086Z,5.11
2022-10-08T21:23:58.241Z,5.03
2022-10-08T21:26:29.101Z,5.01
2022-10-08T21:28:57.108Z,4.93
2022-10-08T21:31:23.926Z,4.84
2022-10-08T21:33:51.242Z,4.77
2022-10-08T21:36:28.569Z,4.76
2022-10-08T21:38:55.346Z,4.83
2022-10-08T21:41:23.412Z,4.84
2022-10-08T21:43:51.685Z,4.83
2022-10-08T21:46:20.200Z,4.71
2022-10-08T21:48:46.913Z,4.74
2022-10-08T21:51:17.956Z,4.67
2022-10-08T21:53:45.596Z,4.75
2022-10-08T21:56:13.839Z,4.68
2022-10-08T21:58:41.998Z,4.72
2022-10-08T22:01:10.848Z,4.79
2022-10-08T22:03:37.582Z,4.71
2022-10-08T22:06:04.299Z,4.64
2022-10-08T22:08:31.017Z,4.60
2022-10-08T22:10:57.801Z,4.49
2022-10-08T22:13:24.406Z,4.38
2022-10-08T22:15:58.461Z,4.39
2022-10-08T22:18:28.629Z,4.28
2022-10-08T22:20:57.328Z,4.28
2022-10-08T22:23:23.974Z,4.24
2022-10-08T22:26:13.241Z,4.20
2022-10-08T22:28:39.940Z,4.27
2022-10-08T22:31:07.342Z,4.31
2022-10-08T22:33:34.091Z,4.26
2022-10-08T22:36:02.072Z,4.22
2022-10-08T22:38:28.727Z,4.19
2022-10-08T22:41:01.274Z,4.20
2022-10-08T22:43:27.869Z,4.16
2022-10-08T22:45:54.570Z,4.20
2022-10-08T22:48:21.287Z,4.17
2022-10-08T22:50:47.934Z,4.23
2022-10-08T22:53:14.564Z,4.13
2022-10-08T22:55:41.191Z,4.16
2022-10-08T22:58:08.208Z,4.16
2022-10-08T23:00:34.873Z,4.20
2022-10-08T23:03:01.587Z,4.21
2022-10-08T23:05:28.230Z,4.17
2022-10-08T23:07:58.006Z,4.07
2022-10-08T23:10:24.836Z,4.01
2022-10-08T23:12:54.437Z,4.10
2022-10-08T23:15:21.222Z,4.05
2022-10-08T23:17:47.849Z,4.01
2022-10-08T23:20:14.635Z,3.98
2022-10-08T23:22:41.251Z,3.92
2022-10-08T23:25:08.054Z,3.89
2022-10-08T23:27:34.613Z,3.95
2022-10-08T23:30:01.220Z,3.88
2022-10-08T23:32:27.956Z,3.73
2022-10-08T23:34:54.589Z,3.87
2022-10-08T23:37:21.250Z,3.83
2022-10-08T23:39:47.823Z,3.68
2022-10-08T23:42:14.413Z,3.73
2022-10-08T23:44:41.026Z,3.67
2022-10-08T23:47:07.754Z,3.63
2022-10-08T23:49:34.400Z,3.59
2022-10-08T23:52:01.078Z,3.56
2022-10-08T23:54:27.696Z,3.45
2022-10-08T23:56:54.435Z,3.45
2022-10-08T23:59:21.258Z,3.32
